sensor_id;sensor_type;location;lat;lon;timestamp;P1;durP1;ratioP1;P2;durP2;ratioP2
64052;SDS011;50299;49.524;8.536;2023-12-20T00:01:21;5.13;;;3.63;;
64052;SDS011;50299;49.524;8.536;2023-12-20T00:03:48;3.22;;;2.95;;
64052;SDS011;50299;49.524;8.536;2023-12-20T00:06:14;2.63;;;2.42;;
64052;SDS011;50299;49.524;8.536;2023-12-20T00:08:42;5.07;;;3.38;;
64052;SDS011;50299;49.524;8.536;2023-12-20T00:11:10;3.67;;;3.38;;
64052;SDS011;50299;49.524;8.536;2023-12-20T00:13:36;4.53;;;4.13;;
64052;SDS011;50299;49.524;8.536;2023-12-20T00:16:03;3.17;;;2.88;;
64052;SDS011;50299;49.524;8.536;2023-12-20T00:18:30;3.42;;;2.42;;
64052;SDS011;50299;49.524;8.536;2023-12-20T00:20:56;3.95;;;3.13;;
64052;SDS011;50299;49.524;8.536;2023-12-20T00:23:23;2.72;;;2.53;;
64052;SDS011;50299;49.524;8.536;2023-12-20T00:25:49;4.55;;;2.90;;
64052;SDS011;50299;49.524;8.536;2023-12-20T00:28:16;3.60;;;2.67;;
64052;SDS011;50299;49.524;8.536;2023-12-20T00:30:42;3.30;;;2.78;;
64052;SDS011;50299;49.524;8.536;2023-12-20T00:33:10;3.83;;;2.63;;
64052;SDS011;50299;49.524;8.536;2023-12-20T00:35:36;3.67;;;2.88;;
64052;SDS011;50299;49.524;8.536;2023-12-20T00:38:03;2.95;;;2.50;;
64052;SDS011;50299;49.524;8.536;2023-12-20T00:40:31;2.90;;;2.65;;
64052;SDS011;50299;49.524;8.536;2023-12-20T00:42:57;3.35;;;2.53;;
64052;SDS011;50299;49.524;8.536;2023-12-20T00:45:24;3.72;;;2.88;;
64052;SDS011;50299;49.524;8.536;2023-12-20T00:47:53;3.65;;;2.63;;
64052;SDS011;50299;49.524;8.536;2023-12-20T00:50:19;4.45;;;2.58;;
64052;SDS011;50299;49.524;8.536;2023-12-20T00:52:48;2.67;;;2.03;;
64052;SDS011;50299;49.524;8.536;2023-12-20T00:55:14;3.33;;;2.47;;
64052;SDS011;50299;49.524;8.536;2023-12-20T00:57:41;2.78;;;2.58;;
64052;SDS011;50299;49.524;8.536;2023-12-20T01:00:08;2.58;;;2.38;;
64052;SDS011;50299;49.524;8.536;2023-12-20T01:02:36;2.30;;;2.20;;
64052;SDS011;50299;49.524;8.536;2023-12-20T01:05:02;5.15;;;2.58;;
64052;SDS011;50299;49.524;8.536;2023-12-20T01:07:29;3.42;;;2.33;;
64052;SDS011;50299;49.524;8.536;2023-12-20T01:09:55;1.88;;;1.77;;
64052;SDS011;50299;49.524;8.536;2023-12-20T01:12:21;2.30;;;2.10;;
64052;SDS011;50299;49.524;8.536;2023-12-20T01:14:48;3.10;;;2.80;;
64052;SDS011;50299;49.524;8.536;2023-12-20T01:17:14;2.33;;;2.08;;
64052;SDS011;50299;49.524;8.536;2023-12-20T01:19:41;1.88;;;1.77;;
64052;SDS011;50299;49.524;8.536;2023-12-20T01:22:07;4.53;;;2.08;;
64052;SDS011;50299;49.524;8.536;2023-12-20T01:24:34;1.85;;;1.75;;
64052;SDS011;50299;49.524;8.536;2023-12-20T01:27:03;1.70;;;1.60;;
64052;SDS011;50299;49.524;8.536;2023-12-20T01:31:56;2.08;;;1.88;;
64052;SDS011;50299;49.524;8.536;2023-12-20T01:34:25;2.15;;;1.83;;
64052;SDS011;50299;49.524;8.536;2023-12-20T01:36:52;2.65;;;1.88;;
64052;SDS011;50299;49.524;8.536;2023-12-20T01:39:19;2.40;;;1.90;;
64052;SDS011;50299;49.524;8.536;2023-12-20T01:41:55;2.38;;;2.00;;
64052;SDS011;50299;49.524;8.536;2023-12-20T01:44:21;2.33;;;2.13;;
64052;SDS011;50299;49.524;8.536;2023-12-20T01:46:48;1.85;;;1.75;;
64052;SDS011;50299;49.524;8.536;2023-12-20T01:49:14;3.60;;;1.88;;
64052;SDS011;50299;49.524;8.536;2023-12-20T01:51:42;2.28;;;1.65;;
64052;SDS011;50299;49.524;8.536;2023-12-20T01:54:09;1.90;;;1.80;;
64052;SDS011;50299;49.524;8.536;2023-12-20T01:56:35;1.58;;;1.48;;
64052;SDS011;50299;49.524;8.536;2023-12-20T01:59:05;1.58;;;1.30;;
64052;SDS011;50299;49.524;8.536;2023-12-20T02:01:33;2.40;;;1.65;;
64052;SDS011;50299;49.524;8.536;2023-12-20T02:04:00;2.53;;;1.63;;
64052;SDS011;50299;49.524;8.536;2023-12-20T02:06:30;1.52;;;1.42;;
64052;SDS011;50299;49.524;8.536;2023-12-20T02:09:00;2.78;;;1.67;;
64052;SDS011;50299;49.524;8.536;2023-12-20T02:11:26;2.55;;;1.98;;
64052;SDS011;50299;49.524;8.536;2023-12-20T02:13:53;1.55;;;1.45;;
64052;SDS011;50299;49.524;8.536;2023-12-20T02:16:21;2.13;;;1.98;;
64052;SDS011;50299;49.524;8.536;2023-12-20T02:18:51;1.67;;;1.58;;
64052;SDS011;50299;49.524;8.536;2023-12-20T02:21:18;1.45;;;1.35;;
64052;SDS011;50299;49.524;8.536;2023-12-20T02:23:44;1.83;;;1.50;;
64052;SDS011;50299;49.524;8.536;2023-12-20T02:26:11;1.77;;;1.48;;
64052;SDS011;50299;49.524;8.536;2023-12-20T02:28:40;1.48;;;1.38;;
64052;SDS011;50299;49.524;8.536;2023-12-20T02:31:06;2.30;;;1.60;;
64052;SDS011;50299;49.524;8.536;2023-12-20T02:33:33;1.42;;;1.33;;
64052;SDS011;50299;49.524;8.536;2023-12-20T02:35:59;1.48;;;1.35;;
64052;SDS011;50299;49.524;8.536;2023-12-20T02:38:26;1.45;;;1.33;;
64052;SDS011;50299;49.524;8.536;2023-12-20T02:40:52;2.05;;;1.30;;
64052;SDS011;50299;49.524;8.536;2023-12-20T02:43:18;1.40;;;1.27;;
64052;SDS011;50299;49.524;8.536;2023-12-20T02:45:48;1.63;;;1.40;;
64052;SDS011;50299;49.524;8.536;2023-12-20T02:50:41;0.93;;;0.88;;
64052;SDS011;50299;49.524;8.536;2023-12-20T02:53:10;1.35;;;1.35;;
64052;SDS011;50299;49.524;8.536;2023-12-20T02:55:36;1.83;;;1.27;;
64052;SDS011;50299;49.524;8.536;2023-12-20T02:58:03;1.67;;;1.58;;
64052;SDS011;50299;49.524;8.536;2023-12-20T03:00:35;1.38;;;1.27;;
64052;SDS011;50299;49.524;8.536;2023-12-20T03:03:02;1.38;;;1.27;;
64052;SDS011;50299;49.524;8.536;2023-12-20T03:05:28;1.17;;;1.17;;
64052;SDS011;50299;49.524;8.536;2023-12-20T03:07:55;1.27;;;1.17;;
64052;SDS011;50299;49.524;8.536;2023-12-20T03:10:21;1.00;;;0.95;;
64052;SDS011;50299;49.524;8.536;2023-12-20T03:12:52;1.30;;;1.20;;
64052;SDS011;50299;49.524;8.536;2023-12-20T03:15:22;1.33;;;1.25;;
64052;SDS011;50299;49.524;8.536;2023-12-20T03:17:48;1.77;;;1.17;;
64052;SDS011;50299;49.524;8.536;2023-12-20T03:20:15;1.60;;;1.50;;
64052;SDS011;50299;49.524;8.536;2023-12-20T03:22:42;2.78;;;1.48;;
64052;SDS011;50299;49.524;8.536;2023-12-20T03:25:08;2.20;;;2.10;;
64052;SDS011;50299;49.524;8.536;2023-12-20T03:27:36;1.58;;;1.48;;
64052;SDS011;50299;49.524;8.536;2023-12-20T03:30:05;2.72;;;2.53;;
64052;SDS011;50299;49.524;8.536;2023-12-20T03:32:32;1.73;;;1.63;;
64052;SDS011;50299;49.524;8.536;2023-12-20T03:34:58;1.92;;;1.70;;
64052;SDS011;50299;49.524;8.536;2023-12-20T03:37:25;1.92;;;1.83;;
64052;SDS011;50299;49.524;8.536;2023-12-20T03:39:51;2.53;;;1.98;;
64052;SDS011;50299;49.524;8.536;2023-12-20T03:42:18;2.22;;;1.60;;
64052;SDS011;50299;49.524;8.536;2023-12-20T03:44:44;1.90;;;1.70;;
64052;SDS011;50299;49.524;8.536;2023-12-20T03:47:11;1.83;;;1.73;;
64052;SDS011;50299;49.524;8.536;2023-12-20T03:49:37;1.63;;;1.40;;
64052;SDS011;50299;49.524;8.536;2023-12-20T03:52:04;1.75;;;1.65;;
64052;SDS011;50299;49.524;8.536;2023-12-20T03:54:31;2.17;;;1.58;;
64052;SDS011;50299;49.524;8.536;2023-12-20T03:56:58;2.63;;;2.42;;
64052;SDS011;50299;49.524;8.536;2023-12-20T03:59:24;2.28;;;1.90;;
64052;SDS011;50299;49.524;8.536;2023-12-20T04:01:51;1.35;;;1.27;;
64052;SDS011;50299;49.524;8.536;2023-12-20T04:04:17;2.03;;;1.73;;
64052;SDS011;50299;49.524;8.536;2023-12-20T04:06:45;1.98;;;1.83;;
64052;SDS011;50299;49.524;8.536;2023-12-20T04:09:11;1.98;;;1.88;;
64052;SDS011;50299;49.524;8.536;2023-12-20T04:11:38;2.70;;;2.15;;
64052;SDS011;50299;49.524;8.536;2023-12-20T04:14:04;2.33;;;1.85;;
64052;SDS011;50299;49.524;8.536;2023-12-20T04:16:31;2.65;;;2.42;;
64052;SDS011;50299;49.524;8.536;2023-12-20T04:18:57;3.42;;;3.00;;
64052;SDS011;50299;49.524;8.536;2023-12-20T04:21:24;2.33;;;2.13;;
64052;SDS011;50299;49.524;8.536;2023-12-20T04:23:50;3.28;;;2.25;;
64052;SDS011;50299;49.524;8.536;2023-12-20T04:26:16;4.05;;;2.38;;
64052;SDS011;50299;49.524;8.536;2023-12-20T04:28:43;3.45;;;2.20;;
64052;SDS011;50299;49.524;8.536;2023-12-20T04:31:09;4.13;;;3.55;;
64052;SDS011;50299;49.524;8.536;2023-12-20T04:33:36;3.95;;;2.65;;
64052;SDS011;50299;49.524;8.536;2023-12-20T04:36:03;2.33;;;2.13;;
64052;SDS011;50299;49.524;8.536;2023-12-20T04:38:30;3.50;;;2.28;;
64052;SDS011;50299;49.524;8.536;2023-12-20T04:40:57;2.70;;;2.25;;
64052;SDS011;50299;49.524;8.536;2023-12-20T04:43:23;2.53;;;2.13;;
64052;SDS011;50299;49.524;8.536;2023-12-20T04:45:51;2.92;;;2.60;;
64052;SDS011;50299;49.524;8.536;2023-12-20T04:48:17;2.38;;;2.03;;
64052;SDS011;50299;49.524;8.536;2023-12-20T04:50:44;2.20;;;2.00;;
64052;SDS011;50299;49.524;8.536;2023-12-20T04:53:10;4.57;;;1.85;;
64052;SDS011;50299;49.524;8.536;2023-12-20T04:55:37;3.33;;;3.03;;
64052;SDS011;50299;49.524;8.536;2023-12-20T04:58:03;2.25;;;1.77;;
64052;SDS011;50299;49.524;8.536;2023-12-20T05:00:30;2.10;;;1.70;;
64052;SDS011;50299;49.524;8.536;2023-12-20T05:02:56;2.33;;;1.73;;
64052;SDS011;50299;49.524;8.536;2023-12-20T05:05:23;1.92;;;1.63;;
64052;SDS011;50299;49.524;8.536;2023-12-20T05:07:49;1.95;;;1.85;;
64052;SDS011;50299;49.524;8.536;2023-12-20T05:10:18;1.48;;;1.38;;
64052;SDS011;50299;49.524;8.536;2023-12-20T05:12:48;1.58;;;1.48;;
64052;SDS011;50299;49.524;8.536;2023-12-20T05:15:14;1.85;;;1.75;;
64052;SDS011;50299;49.524;8.536;2023-12-20T05:17:40;1.77;;;1.67;;
64052;SDS011;50299;49.524;8.536;2023-12-20T05:20:07;1.38;;;1.30;;
64052;SDS011;50299;49.524;8.536;2023-12-20T05:22:34;1.80;;;1.70;;
64052;SDS011;50299;49.524;8.536;2023-12-20T05:25:00;2.20;;;2.00;;
64052;SDS011;50299;49.524;8.536;2023-12-20T05:27:27;2.17;;;1.98;;
64052;SDS011;50299;49.524;8.536;2023-12-20T05:29:53;2.60;;;1.63;;
64052;SDS011;50299;49.524;8.536;2023-12-20T05:32:23;2.50;;;2.25;;
64052;SDS011;50299;49.524;8.536;2023-12-20T05:34:50;1.90;;;1.80;;
64052;SDS011;50299;49.524;8.536;2023-12-20T05:37:16;2.00;;;1.90;;
64052;SDS011;50299;49.524;8.536;2023-12-20T05:39:43;3.17;;;2.15;;
64052;SDS011;50299;49.524;8.536;2023-12-20T05:42:09;2.03;;;1.85;;
64052;SDS011;50299;49.524;8.536;2023-12-20T05:44:35;2.85;;;2.65;;
64052;SDS011;50299;49.524;8.536;2023-12-20T05:47:02;2.58;;;2.20;;
64052;SDS011;50299;49.524;8.536;2023-12-20T05:49:29;2.00;;;1.80;;
64052;SDS011;50299;49.524;8.536;2023-12-20T05:51:55;2.15;;;1.95;;
64052;SDS011;50299;49.524;8.536;2023-12-20T05:54:22;2.22;;;1.90;;
64052;SDS011;50299;49.524;8.536;2023-12-20T05:56:49;2.08;;;1.95;;
64052;SDS011;50299;49.524;8.536;2023-12-20T05:59:16;2.55;;;2.35;;
64052;SDS011;50299;49.524;8.536;2023-12-20T06:01:43;2.35;;;2.05;;
64052;SDS011;50299;49.524;8.536;2023-12-20T06:04:10;3.22;;;2.38;;
64052;SDS011;50299;49.524;8.536;2023-12-20T06:06:42;3.17;;;2.53;;
64052;SDS011;50299;49.524;8.536;2023-12-20T06:09:09;4.13;;;2.78;;
64052;SDS011;50299;49.524;8.536;2023-12-20T06:11:36;2.90;;;2.25;;
64052;SDS011;50299;49.524;8.536;2023-12-20T06:14:03;4.20;;;2.38;;
64052;SDS011;50299;49.524;8.536;2023-12-20T06:16:30;2.83;;;2.63;;
64052;SDS011;50299;49.524;8.536;2023-12-20T06:18:56;2.97;;;2.15;;
64052;SDS011;50299;49.524;8.536;2023-12-20T06:21:23;3.00;;;2.70;;
64052;SDS011;50299;49.524;8.536;2023-12-20T06:23:49;3.58;;;2.70;;
64052;SDS011;50299;49.524;8.536;2023-12-20T06:26:16;4.53;;;3.13;;
64052;SDS011;50299;49.524;8.536;2023-12-20T06:28:42;3.28;;;2.97;;
64052;SDS011;50299;49.524;8.536;2023-12-20T06:31:09;3.20;;;2.40;;
64052;SDS011;50299;49.524;8.536;2023-12-20T06:33:35;2.78;;;2.45;;
64052;SDS011;50299;49.524;8.536;2023-12-20T06:36:02;2.88;;;2.40;;
64052;SDS011;50299;49.524;8.536;2023-12-20T06:38:29;2.47;;;2.28;;
64052;SDS011;50299;49.524;8.536;2023-12-20T06:40:58;2.38;;;2.13;;
64052;SDS011;50299;49.524;8.536;2023-12-20T06:43:25;2.05;;;1.85;;
64052;SDS011;50299;49.524;8.536;2023-12-20T06:45:56;1.98;;;1.88;;
64052;SDS011;50299;49.524;8.536;2023-12-20T06:48:23;2.28;;;2.15;;
64052;SDS011;50299;49.524;8.536;2023-12-20T06:50:49;4.53;;;2.35;;
64052;SDS011;50299;49.524;8.536;2023-12-20T06:53:16;2.17;;;1.98;;
64052;SDS011;50299;49.524;8.536;2023-12-20T06:55:42;2.65;;;2.45;;
64052;SDS011;50299;49.524;8.536;2023-12-20T06:58:09;2.08;;;1.85;;
64052;SDS011;50299;49.524;8.536;2023-12-20T07:00:36;1.85;;;1.73;;
64052;SDS011;50299;49.524;8.536;2023-12-20T07:03:04;2.25;;;2.05;;
64052;SDS011;50299;49.524;8.536;2023-12-20T07:05:30;2.22;;;2.03;;
64052;SDS011;50299;49.524;8.536;2023-12-20T07:07:57;2.22;;;2.00;;
64052;SDS011;50299;49.524;8.536;2023-12-20T07:10:24;2.53;;;2.00;;
64052;SDS011;50299;49.524;8.536;2023-12-20T07:12:50;2.08;;;1.98;;
64052;SDS011;50299;49.524;8.536;2023-12-20T07:15:17;2.22;;;1.85;;
64052;SDS011;50299;49.524;8.536;2023-12-20T07:17:44;1.63;;;1.52;;
64052;SDS011;50299;49.524;8.536;2023-12-20T07:20:11;1.88;;;1.77;;
64052;SDS011;50299;49.524;8.536;2023-12-20T07:22:38;3.28;;;1.77;;
64052;SDS011;50299;49.524;8.536;2023-12-20T07:25:06;2.92;;;1.60;;
64052;SDS011;50299;49.524;8.536;2023-12-20T07:27:32;4.72;;;2.45;;
64052;SDS011;50299;49.524;8.536;2023-12-20T07:29:59;1.77;;;1.58;;
64052;SDS011;50299;49.524;8.536;2023-12-20T07:32:25;1.63;;;1.52;;
64052;SDS011;50299;49.524;8.536;2023-12-20T07:34:52;1.73;;;1.63;;
64052;SDS011;50299;49.524;8.536;2023-12-20T07:39:48;2.03;;;1.40;;
64052;SDS011;50299;49.524;8.536;2023-12-20T07:42:14;2.17;;;1.60;;
64052;SDS011;50299;49.524;8.536;2023-12-20T07:44:41;1.95;;;1.77;;
64052;SDS011;50299;49.524;8.536;2023-12-20T07:47:08;2.25;;;1.92;;
64052;SDS011;50299;49.524;8.536;2023-12-20T07:49:34;3.15;;;1.42;;
64052;SDS011;50299;49.524;8.536;2023-12-20T07:52:01;4.43;;;2.67;;
64052;SDS011;50299;49.524;8.536;2023-12-20T07:54:27;2.80;;;1.85;;
64052;SDS011;50299;49.524;8.536;2023-12-20T07:56:53;1.75;;;1.60;;
64052;SDS011;50299;49.524;8.536;2023-12-20T07:59:20;1.67;;;1.58;;
64052;SDS011;50299;49.524;8.536;2023-12-20T08:01:58;1.50;;;1.30;;
64052;SDS011;50299;49.524;8.536;2023-12-20T08:04:25;2.88;;;1.80;;
64052;SDS011;50299;49.524;8.536;2023-12-20T08:06:52;1.58;;;1.48;;
64052;SDS011;50299;49.524;8.536;2023-12-20T08:09:19;1.83;;;1.73;;
64052;SDS011;50299;49.524;8.536;2023-12-20T08:11:46;2.13;;;1.80;;
64052;SDS011;50299;49.524;8.536;2023-12-20T08:14:13;1.70;;;1.60;;
64052;SDS011;50299;49.524;8.536;2023-12-20T08:16:43;2.72;;;2.00;;
64052;SDS011;50299;49.524;8.536;2023-12-20T08:19:09;1.83;;;1.73;;
64052;SDS011;50299;49.524;8.536;2023-12-20T08:21:36;1.40;;;1.30;;
64052;SDS011;50299;49.524;8.536;2023-12-20T08:24:04;1.35;;;1.25;;
64052;SDS011;50299;49.524;8.536;2023-12-20T08:26:31;3.72;;;1.63;;
64052;SDS011;50299;49.524;8.536;2023-12-20T08:28:58;2.65;;;1.55;;
64052;SDS011;50299;49.524;8.536;2023-12-20T08:31:27;1.25;;;1.17;;
64052;SDS011;50299;49.524;8.536;2023-12-20T08:33:54;3.13;;;2.00;;
64052;SDS011;50299;49.524;8.536;2023-12-20T08:36:21;3.72;;;1.50;;
64052;SDS011;50299;49.524;8.536;2023-12-20T08:38:50;1.08;;;1.08;;
64052;SDS011;50299;49.524;8.536;2023-12-20T08:41:17;2.08;;;1.77;;
64052;SDS011;50299;49.524;8.536;2023-12-20T08:43:44;1.65;;;1.55;;
64052;SDS011;50299;49.524;8.536;2023-12-20T08:46:10;2.50;;;2.03;;
64052;SDS011;50299;49.524;8.536;2023-12-20T08:48:38;2.00;;;1.17;;
64052;SDS011;50299;49.524;8.536;2023-12-20T08:51:05;2.25;;;1.42;;
64052;SDS011;50299;49.524;8.536;2023-12-20T08:53:34;3.83;;;1.35;;
64052;SDS011;50299;49.524;8.536;2023-12-20T08:56:01;1.67;;;1.17;;
64052;SDS011;50299;49.524;8.536;2023-12-20T08:58:29;2.80;;;1.42;;
64052;SDS011;50299;49.524;8.536;2023-12-20T09:00:56;2.33;;;1.48;;
64052;SDS011;50299;49.524;8.536;2023-12-20T09:03:24;1.67;;;1.58;;
64052;SDS011;50299;49.524;8.536;2023-12-20T09:05:50;1.73;;;1.38;;
64052;SDS011;50299;49.524;8.536;2023-12-20T09:08:17;1.20;;;1.08;;
64052;SDS011;50299;49.524;8.536;2023-12-20T09:10:43;3.38;;;1.33;;
64052;SDS011;50299;49.524;8.536;2023-12-20T09:13:11;1.20;;;1.10;;
64052;SDS011;50299;49.524;8.536;2023-12-20T09:15:37;1.75;;;1.65;;
64052;SDS011;50299;49.524;8.536;2023-12-20T09:18:03;1.27;;;1.13;;
64052;SDS011;50299;49.524;8.536;2023-12-20T09:20:30;2.05;;;1.88;;
64052;SDS011;50299;49.524;8.536;2023-12-20T09:22:57;2.88;;;1.17;;
64052;SDS011;50299;49.524;8.536;2023-12-20T09:25:24;1.00;;;1.00;;
64052;SDS011;50299;49.524;8.536;2023-12-20T09:27:52;2.15;;;1.17;;
64052;SDS011;50299;49.524;8.536;2023-12-20T09:30:19;1.42;;;1.30;;
64052;SDS011;50299;49.524;8.536;2023-12-20T09:32:53;1.27;;;1.17;;
64052;SDS011;50299;49.524;8.536;2023-12-20T09:35:20;1.95;;;1.70;;
64052;SDS011;50299;49.524;8.536;2023-12-20T09:37:47;2.90;;;1.15;;
64052;SDS011;50299;49.524;8.536;2023-12-20T09:40:14;1.92;;;1.13;;
64052;SDS011;50299;49.524;8.536;2023-12-20T09:45:36;6.10;;;1.60;;
64052;SDS011;50299;49.524;8.536;2023-12-20T09:48:05;2.20;;;1.33;;
64052;SDS011;50299;49.524;8.536;2023-12-20T09:50:32;2.78;;;1.23;;
64052;SDS011;50299;49.524;8.536;2023-12-20T09:52:59;1.73;;;1.00;;
64052;SDS011;50299;49.524;8.536;2023-12-20T09:55:28;1.50;;;1.08;;
64052;SDS011;50299;49.524;8.536;2023-12-20T09:57:56;5.03;;;1.48;;
64052;SDS011;50299;49.524;8.536;2023-12-20T10:00:23;1.88;;;1.10;;
64052;SDS011;50299;49.524;8.536;2023-12-20T10:08:02;2.90;;;1.05;;
64052;SDS011;50299;49.524;8.536;2023-12-20T10:10:29;1.67;;;1.13;;
64052;SDS011;50299;49.524;8.536;2023-12-20T10:13:11;2.65;;;0.85;;
64052;SDS011;50299;49.524;8.536;2023-12-20T10:15:38;2.40;;;1.15;;
64052;SDS011;50299;49.524;8.536;2023-12-20T10:18:05;1.17;;;1.05;;
64052;SDS011;50299;49.524;8.536;2023-12-20T10:20:33;2.10;;;1.92;;
64052;SDS011;50299;49.524;8.536;2023-12-20T10:23:00;3.47;;;1.23;;
64052;SDS011;50299;49.524;8.536;2023-12-20T10:25:27;1.60;;;1.50;;
64052;SDS011;50299;49.524;8.536;2023-12-20T10:30:38;2.78;;;1.42;;
64052;SDS011;50299;49.524;8.536;2023-12-20T10:33:05;4.63;;;1.48;;
64052;SDS011;50299;49.524;8.536;2023-12-20T10:35:34;1.58;;;0.93;;
64052;SDS011;50299;49.524;8.536;2023-12-20T10:38:03;2.55;;;1.27;;
64052;SDS011;50299;49.524;8.536;2023-12-20T10:40:35;4.53;;;2.33;;
64052;SDS011;50299;49.524;8.536;2023-12-20T10:43:05;4.10;;;1.58;;
64052;SDS011;50299;49.524;8.536;2023-12-20T10:45:32;1.27;;;1.08;;
64052;SDS011;50299;49.524;8.536;2023-12-20T10:47:59;2.83;;;1.00;;
64052;SDS011;50299;49.524;8.536;2023-12-20T10:50:28;1.27;;;1.17;;
64052;SDS011;50299;49.524;8.536;2023-12-20T10:52:56;5.07;;;1.63;;
64052;SDS011;50299;49.524;8.536;2023-12-20T10:55:27;3.00;;;1.40;;
64052;SDS011;50299;49.524;8.536;2023-12-20T10:57:57;1.92;;;1.05;;
64052;SDS011;50299;49.524;8.536;2023-12-20T11:00:28;2.60;;;1.45;;
64052;SDS011;50299;49.524;8.536;2023-12-20T11:05:42;2.42;;;1.30;;
64052;SDS011;50299;49.524;8.536;2023-12-20T11:11:29;1.50;;;1.40;;
64052;SDS011;50299;49.524;8.536;2023-12-20T11:14:04;2.75;;;1.58;;
64052;SDS011;50299;49.524;8.536;2023-12-20T11:16:37;3.13;;;1.45;;
64052;SDS011;50299;49.524;8.536;2023-12-20T11:19:17;2.33;;;1.27;;
64052;SDS011;50299;49.524;8.536;2023-12-20T11:21:43;3.25;;;1.83;;
64052;SDS011;50299;49.524;8.536;2023-12-20T11:24:12;2.33;;;1.60;;
64052;SDS011;50299;49.524;8.536;2023-12-20T11:26:38;2.78;;;1.48;;
64052;SDS011;50299;49.524;8.536;2023-12-20T11:32:01;1.98;;;1.48;;
64052;SDS011;50299;49.524;8.536;2023-12-20T11:34:32;1.75;;;1.60;;
64052;SDS011;50299;49.524;8.536;2023-12-20T11:37:02;2.38;;;2.08;;
64052;SDS011;50299;49.524;8.536;2023-12-20T11:39:30;2.33;;;1.70;;
64052;SDS011;50299;49.524;8.536;2023-12-20T11:41:57;3.40;;;1.38;;
64052;SDS011;50299;49.524;8.536;2023-12-20T11:44:30;1.73;;;1.63;;
64052;SDS011;50299;49.524;8.536;2023-12-20T11:46:57;5.45;;;1.50;;
64052;SDS011;50299;49.524;8.536;2023-12-20T11:49:24;1.63;;;1.52;;
64052;SDS011;50299;49.524;8.536;2023-12-20T11:51:54;6.32;;;1.67;;
64052;SDS011;50299;49.524;8.536;2023-12-20T11:54:20;3.30;;;1.88;;
64052;SDS011;50299;49.524;8.536;2023-12-20T11:56:47;2.20;;;2.00;;
64052;SDS011;50299;49.524;8.536;2023-12-20T11:59:13;2.67;;;2.47;;
64052;SDS011;50299;49.524;8.536;2023-12-20T12:01:49;2.28;;;1.45;;
64052;SDS011;50299;49.524;8.536;2023-12-20T12:04:19;1.42;;;1.33;;
64052;SDS011;50299;49.524;8.536;2023-12-20T12:06:46;2.83;;;1.65;;
64052;SDS011;50299;49.524;8.536;2023-12-20T12:09:12;2.08;;;1.77;;
64052;SDS011;50299;49.524;8.536;2023-12-20T12:11:39;3.38;;;1.95;;
64052;SDS011;50299;49.524;8.536;2023-12-20T12:14:06;2.05;;;1.92;;
64052;SDS011;50299;49.524;8.536;2023-12-20T12:16:34;2.40;;;2.15;;
64052;SDS011;50299;49.524;8.536;2023-12-20T12:19:00;3.00;;;2.17;;
64052;SDS011;50299;49.524;8.536;2023-12-20T12:21:27;4.40;;;2.58;;
64052;SDS011;50299;49.524;8.536;2023-12-20T12:24:08;2.03;;;1.50;;
64052;SDS011;50299;49.524;8.536;2023-12-20T12:26:35;1.88;;;1.77;;
64052;SDS011;50299;49.524;8.536;2023-12-20T12:29:02;1.98;;;1.67;;
64052;SDS011;50299;49.524;8.536;2023-12-20T12:31:28;3.25;;;1.85;;
64052;SDS011;50299;49.524;8.536;2023-12-20T12:33:56;3.88;;;2.53;;
64052;SDS011;50299;49.524;8.536;2023-12-20T12:36:23;3.40;;;1.80;;
64052;SDS011;50299;49.524;8.536;2023-12-20T12:38:50;3.80;;;1.98;;
64052;SDS011;50299;49.524;8.536;2023-12-20T12:41:16;4.90;;;1.95;;
64052;SDS011;50299;49.524;8.536;2023-12-20T12:43:43;1.35;;;1.25;;
64052;SDS011;50299;49.524;8.536;2023-12-20T12:46:10;3.55;;;1.38;;
64052;SDS011;50299;49.524;8.536;2023-12-20T12:48:36;2.90;;;2.13;;
64052;SDS011;50299;49.524;8.536;2023-12-20T12:51:03;3.50;;;1.67;;
64052;SDS011;50299;49.524;8.536;2023-12-20T12:53:30;1.88;;;1.70;;
64052;SDS011;50299;49.524;8.536;2023-12-20T12:55:56;3.50;;;1.90;;
64052;SDS011;50299;49.524;8.536;2023-12-20T12:58:22;1.65;;;1.40;;
64052;SDS011;50299;49.524;8.536;2023-12-20T13:00:51;2.63;;;1.77;;
64052;SDS011;50299;49.524;8.536;2023-12-20T13:03:18;2.05;;;1.95;;
64052;SDS011;50299;49.524;8.536;2023-12-20T13:05:44;3.15;;;2.53;;
64052;SDS011;50299;49.524;8.536;2023-12-20T13:08:12;1.58;;;1.45;;
64052;SDS011;50299;49.524;8.536;2023-12-20T13:10:40;4.80;;;1.73;;
64052;SDS011;50299;49.524;8.536;2023-12-20T13:13:06;4.28;;;2.28;;
64052;SDS011;50299;49.524;8.536;2023-12-20T13:15:33;1.25;;;1.25;;
64052;SDS011;50299;49.524;8.536;2023-12-20T13:17:59;2.60;;;1.52;;
64052;SDS011;50299;49.524;8.536;2023-12-20T13:20:26;4.53;;;2.47;;
64052;SDS011;50299;49.524;8.536;2023-12-20T13:22:53;1.52;;;1.42;;
64052;SDS011;50299;49.524;8.536;2023-12-20T13:25:19;3.08;;;1.75;;
64052;SDS011;50299;49.524;8.536;2023-12-20T13:27:46;1.58;;;1.48;;
64052;SDS011;50299;49.524;8.536;2023-12-20T13:30:16;4.55;;;2.38;;
64052;SDS011;50299;49.524;8.536;2023-12-20T13:32:43;1.40;;;1.38;;
64052;SDS011;50299;49.524;8.536;2023-12-20T13:35:10;2.42;;;2.22;;
64052;SDS011;50299;49.524;8.536;2023-12-20T13:37:37;4.32;;;2.97;;
64052;SDS011;50299;49.524;8.536;2023-12-20T13:40:05;3.05;;;1.60;;
64052;SDS011;50299;49.524;8.536;2023-12-20T13:42:32;2.75;;;1.75;;
64052;SDS011;50299;49.524;8.536;2023-12-20T13:44:58;1.67;;;1.58;;
64052;SDS011;50299;49.524;8.536;2023-12-20T13:47:25;5.25;;;2.10;;
64052;SDS011;50299;49.524;8.536;2023-12-20T13:49:52;2.63;;;1.67;;
64052;SDS011;50299;49.524;8.536;2023-12-20T13:52:19;4.65;;;1.90;;
64052;SDS011;50299;49.524;8.536;2023-12-20T13:54:45;2.33;;;1.83;;
64052;SDS011;50299;49.524;8.536;2023-12-20T13:57:12;1.98;;;1.60;;
64052;SDS011;50299;49.524;8.536;2023-12-20T13:59:56;1.65;;;1.23;;
64052;SDS011;50299;49.524;8.536;2023-12-20T14:02:24;1.45;;;1.35;;
64052;SDS011;50299;49.524;8.536;2023-12-20T14:04:50;4.25;;;1.67;;
64052;SDS011;50299;49.524;8.536;2023-12-20T14:07:16;2.50;;;1.67;;
64052;SDS011;50299;49.524;8.536;2023-12-20T14:09:43;2.83;;;2.58;;
64052;SDS011;50299;49.524;8.536;2023-12-20T14:12:12;6.07;;;2.40;;
64052;SDS011;50299;49.524;8.536;2023-12-20T14:14:39;5.53;;;1.83;;
64052;SDS011;50299;49.524;8.536;2023-12-20T14:17:05;2.47;;;1.30;;
64052;SDS011;50299;49.524;8.536;2023-12-20T14:19:32;1.75;;;1.40;;
64052;SDS011;50299;49.524;8.536;2023-12-20T14:21:59;1.65;;;1.30;;
64052;SDS011;50299;49.524;8.536;2023-12-20T14:24:28;1.75;;;1.65;;
64052;SDS011;50299;49.524;8.536;2023-12-20T14:26:54;3.58;;;1.42;;
64052;SDS011;50299;49.524;8.536;2023-12-20T14:29:20;1.65;;;1.50;;
64052;SDS011;50299;49.524;8.536;2023-12-20T14:31:49;1.55;;;1.45;;
64052;SDS011;50299;49.524;8.536;2023-12-20T14:34:16;1.63;;;1.38;;
64052;SDS011;50299;49.524;8.536;2023-12-20T14:36:42;1.35;;;1.25;;
64052;SDS011;50299;49.524;8.536;2023-12-20T14:39:09;1.63;;;1.52;;
64052;SDS011;50299;49.524;8.536;2023-12-20T14:41:39;1.73;;;1.27;;
64052;SDS011;50299;49.524;8.536;2023-12-20T14:44:08;1.88;;;1.58;;
64052;SDS011;50299;49.524;8.536;2023-12-20T14:46:34;2.65;;;1.40;;
64052;SDS011;50299;49.524;8.536;2023-12-20T14:49:01;3.08;;;1.25;;
64052;SDS011;50299;49.524;8.536;2023-12-20T14:51:29;5.38;;;1.70;;
64052;SDS011;50299;49.524;8.536;2023-12-20T14:53:55;1.60;;;1.48;;
64052;SDS011;50299;49.524;8.536;2023-12-20T14:56:23;1.42;;;1.42;;
64052;SDS011;50299;49.524;8.536;2023-12-20T14:58:50;2.42;;;1.42;;
64052;SDS011;50299;49.524;8.536;2023-12-20T15:01:16;1.23;;;1.17;;
64052;SDS011;50299;49.524;8.536;2023-12-20T15:03:47;4.68;;;1.83;;
64052;SDS011;50299;49.524;8.536;2023-12-20T15:06:14;1.73;;;1.50;;
64052;SDS011;50299;49.524;8.536;2023-12-20T15:08:41;1.67;;;1.30;;
64052;SDS011;50299;49.524;8.536;2023-12-20T15:11:07;2.83;;;1.70;;
64052;SDS011;50299;49.524;8.536;2023-12-20T15:13:34;1.73;;;1.63;;
64052;SDS011;50299;49.524;8.536;2023-12-20T15:16:00;2.13;;;1.60;;